Time;durP1;ratioP1;P1;durP2;ratioP2;P2;SDS_P1;SDS_P2;PMS_P1;PMS_P2;Temp;Humidity;BMP_temperature;BMP_pressure;BME280_temperature;BME280_humidity;BME280_pressure;Samples;Min_cycle;Max_cycle;Signal;HPM_P1;HPM_P2
2022/03/13 00:00:59;;;;;;;2.45;1.50;;;;;;;21.46;nan;99072.75;5131557;28;20054;-59
2022/03/13 00:03:26;;;;;;;1.77;1.20;;;;;;;21.47;nan;99057.66;5131629;28;20064;-59
2022/03/13 00:05:52;;;;;;;2.35;1.48;;;;;;;21.47;nan;99074.34;5131488;28;20043;-60
2022/03/13 00:08:24;;;;;;;2.50;1.50;;;;;;;21.46;nan;99067.19;5131466;27;20208;-60
2022/03/13 00:11:00;;;;;;;2.00;1.40;;;;;;;21.45;nan;99073.94;5131288;28;20119;-60
2022/03/13 00:13:36;;;;;;;1.77;1.23;;;;;;;21.42;nan;99070.72;5131493;28;20039;-60
2022/03/13 00:16:10;;;;;;;2.78;1.33;;;;;;;21.43;nan;99064.00;5131251;28;20138;-60
2022/03/13 00:18:36;;;;;;;2.20;1.40;;;;;;;21.44;nan;99073.16;5112748;28;20046;-60
2022/03/13 00:21:04;;;;;;;1.88;1.25;;;;;;;21.46;nan;99072.75;5131135;28;20505;-60
2022/03/13 00:23:34;;;;;;;1.95;1.33;;;;;;;21.43;nan;99058.44;5131153;28;20516;-60
2022/03/13 00:26:04;;;;;;;2.20;1.50;;;;;;;21.45;nan;99063.63;5131187;28;20502;-60
2022/03/13 00:28:30;;;;;;;2.10;1.40;;;;;;;21.45;nan;99066.41;5131210;28;20074;-60
2022/03/13 00:30:56;;;;;;;2.30;1.55;;;;;;;21.45;nan;99065.59;5131164;28;20046;-60
2022/03/13 00:33:22;;;;;;;2.10;1.40;;;;;;;21.45;nan;99071.97;5131228;28;20248;-60
2022/03/13 00:35:49;;;;;;;2.58;1.65;;;;;;;21.46;nan;99061.63;5130863;28;20080;-60
2022/03/13 00:38:15;;;;;;;2.35;1.50;;;;;;;21.43;nan;99077.91;5130915;28;20039;-60
2022/03/13 00:40:40;;;;;;;2.53;1.50;;;;;;;21.43;nan;99069.56;5130791;28;20045;-59
2022/03/13 00:43:07;;;;;;;2.85;1.67;;;;;;;21.46;nan;99061.63;5130844;28;20522;-60
2022/03/13 00:45:33;;;;;;;2.30;1.30;;;;;;;21.45;nan;99063.63;5130962;28;20043;-60
2022/03/13 00:47:59;;;;;;;2.22;1.38;;;;;;;21.45;nan;99048.91;5131087;28;20046;-60
2022/03/13 00:50:25;;;;;;;1.80;1.27;;;;;;;21.46;nan;99056.84;5130820;28;20081;-60
2022/03/13 00:52:51;;;;;;;2.33;1.52;;;;;;;21.46;nan;99061.63;5130997;28;20050;-60
2022/03/13 00:55:16;;;;;;;2.20;1.33;;;;;;;21.43;nan;99044.53;5130983;28;20088;-60
2022/03/13 00:57:44;;;;;;;2.35;1.50;;;;;;;21.48;nan;99056.47;5130903;28;20040;-60
2022/03/13 01:00:11;;;;;;;2.15;1.35;;;;;;;21.47;nan;99049.31;5130172;27;20050;-56
2022/03/13 01:02:37;;;;;;;2.20;1.42;;;;;;;21.43;nan;99047.31;5130787;28;20082;-56
2022/03/13 01:05:03;;;;;;;2.10;1.33;;;;;;;21.47;nan;99043.75;5130762;28;20405;-56
2022/03/13 01:07:29;;;;;;;2.45;1.48;;;;;;;21.46;nan;99042.94;5130616;28;20092;-56
2022/03/13 01:09:55;;;;;;;2.30;1.50;;;;;;;21.48;nan;99043.34;5130513;28;20047;-57
2022/03/13 01:12:20;;;;;;;2.72;1.63;;;;;;;21.49;nan;99049.72;5130761;28;20049;-56
2022/03/13 01:14:46;;;;;;;2.33;1.40;;;;;;;21.50;nan;99040.16;5130545;28;20079;-57
2022/03/13 01:17:11;;;;;;;2.33;1.33;;;;;;;21.47;nan;99036.19;5130481;28;20397;-57
2022/03/13 01:19:37;;;;;;;2.10;1.30;;;;;;;21.47;nan;99030.63;5130519;28;20043;-56
2022/03/13 01:22:04;;;;;;;2.40;1.23;;;;;;;21.43;nan;99016.72;5130599;28;20043;-57
2022/03/13 01:24:43;;;;;;;2.13;1.42;;;;;;;21.47;nan;99035.41;5130593;28;20411;-57
2022/03/13 01:27:10;;;;;;;2.33;1.30;;;;;;;21.47;nan;99035.41;5129305;28;20100;-56
2022/03/13 01:29:36;;;;;;;1.90;1.25;;;;;;;21.47;nan;99018.69;5130544;28;20116;-56
2022/03/13 01:32:02;;;;;;;1.92;1.30;;;;;;;21.49;nan;99021.88;5130477;28;20573;-57
2022/03/13 01:34:37;;;;;;;2.63;1.58;;;;;;;21.46;nan;99015.13;5130271;28;20499;-57
2022/03/13 01:37:11;;;;;;;1.95;1.35;;;;;;;21.46;nan;99017.91;5127932;28;20064;-56
2022/03/13 01:39:37;;;;;;;1.95;1.27;;;;;;;21.43;nan;99013.91;5130409;28;20047;-56
2022/03/13 01:42:04;;;;;;;2.35;1.50;;;;;;;21.45;nan;99026.66;5130202;28;20503;-57
2022/03/13 01:44:29;;;;;;;2.10;1.30;;;;;;;21.47;nan;99018.69;5130120;28;20130;-57
2022/03/13 01:46:55;;;;;;;2.00;1.30;;;;;;;21.45;nan;99005.19;5130170;28;20169;-56
2022/03/13 01:49:21;;;;;;;2.33;1.40;;;;;;;21.49;nan;99007.97;5130118;27;20407;-57
2022/03/13 01:51:47;;;;;;;2.20;1.20;;;;;;;21.46;nan;99006.78;5130120;27;20122;-56
2022/03/13 01:54:13;;;;;;;2.28;1.30;;;;;;;21.48;nan;99006.38;5130161;27;20126;-56
2022/03/13 01:56:40;;;;;;;1.95;1.30;;;;;;;21.49;nan;99016.31;5130460;28;20455;-56
2022/03/13 01:59:07;;;;;;;2.00;1.30;;;;;;;21.48;nan;99011.94;5130081;28;20043;-56
2022/03/13 02:01:34;;;;;;;2.13;1.35;;;;;;;21.49;nan;99014.31;5130019;27;20050;-56
2022/03/13 02:04:00;;;;;;;1.95;1.13;;;;;;;21.51;nan;99009.19;5130077;28;20049;-57
2022/03/13 02:06:28;;;;;;;2.10;1.30;;;;;;;21.51;nan;99009.19;5130065;28;20122;-56
2022/03/13 02:08:54;;;;;;;2.05;1.42;;;;;;;21.49;nan;99005.19;5130072;28;20100;-56
2022/03/13 02:11:24;;;;;;;2.00;1.25;;;;;;;21.52;nan;99015.56;5130742;27;20047;-57
2022/03/13 02:13:52;;;;;;;2.58;1.60;;;;;;;21.52;nan;99010.78;5133240;28;20116;-56
2022/03/13 02:16:19;;;;;;;1.90;1.25;;;;;;;21.52;nan;99010.00;5133295;28;20043;-56
2022/03/13 02:18:50;;;;;;;2.30;1.60;;;;;;;21.51;nan;99016.75;5133532;28;20043;-56
2022/03/13 02:21:16;;;;;;;1.88;1.30;;;;;;;21.52;nan;99002.44;5133566;28;20047;-57
2022/03/13 02:23:42;;;;;;;2.78;1.30;;;;;;;21.53;nan;99001.25;5133316;27;20123;-56
2022/03/13 02:26:08;;;;;;;1.95;1.30;;;;;;;21.52;nan;99002.44;5133248;28;20130;-56
2022/03/13 02:28:35;;;;;;;2.67;1.52;;;;;;;21.52;nan;99008.00;5133233;27;20039;-56
2022/03/13 02:31:06;;;;;;;2.05;1.50;;;;;;;21.53;nan;99000.44;5133229;28;20047;-56
2022/03/13 02:33:32;;;;;;;2.20;1.50;;;;;;;21.53;nan;99006.81;5131538;27;20058;-57
2022/03/13 02:36:00;;;;;;;2.28;1.35;;;;;;;21.53;nan;98992.91;5132980;28;20491;-56
2022/03/13 02:38:28;;;;;;;2.42;1.55;;;;;;;21.54;nan;99002.84;5133064;28;20058;-59
2022/03/13 02:40:54;;;;;;;2.47;1.80;;;;;;;21.53;nan;98994.88;5133110;28;20043;-60
2022/03/13 02:43:20;;;;;;;2.20;1.50;;;;;;;21.54;nan;98990.91;5133125;28;20070;-59
2022/03/13 02:45:46;;;;;;;2.50;1.80;;;;;;;21.54;nan;98990.91;5133017;28;20449;-60
2022/03/13 02:48:12;;;;;;;2.45;1.70;;;;;;;21.53;nan;98978.19;5133009;28;20041;-60
2022/03/13 02:50:39;;;;;;;2.92;1.60;;;;;;;21.54;nan;98982.56;5132927;28;20035;-60
2022/03/13 02:53:05;;;;;;;2.75;1.80;;;;;;;21.55;nan;98981.38;5132618;28;20039;-60
2022/03/13 02:55:31;;;;;;;2.72;1.70;;;;;;;21.54;nan;98983.34;5132626;28;20048;-60
2022/03/13 02:57:57;;;;;;;2.70;1.80;;;;;;;21.53;nan;98981.75;5132915;28;20086;-60
2022/03/13 03:00:42;;;;;;;2.58;1.63;;;;;;;21.52;nan;98982.97;5132738;28;20124;-60
2022/03/13 03:03:07;;;;;;;2.47;1.60;;;;;;;21.53;nan;98978.97;5131187;27;20035;-59
2022/03/13 03:05:32;;;;;;;2.30;1.52;;;;;;;21.53;nan;98973.41;5132548;28;20046;-60
2022/03/13 03:07:58;;;;;;;2.70;1.67;;;;;;;21.54;nan;98977.00;5132382;28;20055;-60
2022/03/13 03:10:23;;;;;;;2.60;1.70;;;;;;;21.52;nan;98971.81;5132361;28;20044;-60
2022/03/13 03:12:48;;;;;;;2.40;1.40;;;;;;;21.51;nan;98975.81;5132295;28;20070;-59
2022/03/13 03:15:18;;;;;;;3.22;1.80;;;;;;;21.52;nan;98977.38;5132066;27;20062;-60
2022/03/13 03:17:43;;;;;;;2.08;1.30;;;;;;;21.53;nan;98983.75;5131329;28;20047;-60
2022/03/13 03:20:11;;;;;;;2.10;1.30;;;;;;;21.51;nan;98972.22;5132534;28;20050;-59
2022/03/13 03:22:36;;;;;;;2.28;1.63;;;;;;;21.53;nan;98976.19;5131823;27;20039;-59
2022/03/13 03:25:02;;;;;;;2.60;1.70;;;;;;;21.51;nan;98969.44;5132118;28;20483;-60
2022/03/13 03:27:30;;;;;;;2.60;1.63;;;;;;;21.52;nan;98968.25;5131840;28;20079;-60
2022/03/13 03:30:00;;;;;;;2.38;1.60;;;;;;;21.53;nan;98967.06;5132141;27;20121;-59
2022/03/13 03:32:26;;;;;;;3.10;1.50;;;;;;;21.52;nan;98971.81;5132090;28;20133;-60
2022/03/13 03:34:52;;;;;;;2.83;1.50;;;;;;;21.51;nan;98980.56;5132174;28;20102;-60
2022/03/13 03:37:17;;;;;;;2.40;1.60;;;;;;;21.52;nan;98982.16;5132088;28;20044;-60
2022/03/13 03:39:43;;;;;;;2.20;1.40;;;;;;;21.51;nan;98978.59;5131940;28;20726;-60
2022/03/13 03:42:08;;;;;;;2.50;1.58;;;;;;;21.52;nan;98976.59;5132098;28;20050;-60
2022/03/13 03:44:34;;;;;;;2.05;1.40;;;;;;;21.52;nan;98971.81;5131829;28;20126;-60
2022/03/13 03:46:59;;;;;;;2.10;1.45;;;;;;;21.54;nan;98974.22;5131774;28;20051;-60
2022/03/13 03:49:25;;;;;;;2.10;1.40;;;;;;;21.52;nan;98973.81;5131909;27;20047;-60
2022/03/13 03:51:51;;;;;;;2.25;1.40;;;;;;;21.53;nan;98969.84;5131818;28;20053;-60
2022/03/13 03:54:16;;;;;;;2.17;1.40;;;;;;;21.52;nan;98977.38;5131695;28;20050;-60
2022/03/13 03:56:42;;;;;;;2.42;1.60;;;;;;;21.52;nan;98974.59;5131770;28;20051;-59
2022/03/13 03:59:08;;;;;;;2.10;1.50;;;;;;;21.52;nan;98973.81;5131803;28;20035;-60
2022/03/13 04:01:43;;;;;;;2.22;1.45;;;;;;;21.51;nan;98975.81;5131832;28;20653;-60
2022/03/13 04:04:09;;;;;;;1.95;1.30;;;;;;;21.53;nan;98967.84;5131697;28;20495;-60
2022/03/13 04:06:39;;;;;;;2.08;1.35;;;;;;;21.54;nan;98968.66;5131461;27;20047;-60
2022/03/13 04:09:10;;;;;;;2.22;1.40;;;;;;;21.53;nan;98962.28;5131323;28;20090;-60
2022/03/13 04:11:36;;;;;;;2.60;1.60;;;;;;;21.53;nan;98961.50;5131523;27;20047;-60
2022/03/13 04:14:03;;;;;;;2.30;1.45;;;;;;;21.53;nan;98973.41;5131489;28;20043;-60
2022/03/13 04:16:28;;;;;;;2.50;1.55;;;;;;;21.54;nan;98963.09;5131467;28;20089;-60
2022/03/13 04:18:57;;;;;;;2.30;1.40;;;;;;;21.54;nan;98957.50;5131458;28;20453;-60
2022/03/13 04:21:23;;;;;;;2.45;1.55;;;;;;;21.53;nan;98950.34;5131573;28;20043;-60
2022/03/13 04:23:49;;;;;;;2.00;1.40;;;;;;;21.51;nan;98947.19;5131290;28;20039;-60
2022/03/13 04:26:15;;;;;;;2.40;1.50;;;;;;;21.50;nan;98946.34;5131144;28;20096;-60
2022/03/13 04:28:41;;;;;;;3.08;1.60;;;;;;;21.52;nan;98955.13;5130749;28;20039;-60
2022/03/13 04:31:08;;;;;;;2.42;1.60;;;;;;;21.52;nan;98960.69;5131111;28;20057;-60
2022/03/13 04:33:35;;;;;;;2.50;1.60;;;;;;;21.52;nan;98951.56;5130246;27;20520;-60
2022/03/13 04:36:11;;;;;;;2.75;1.67;;;;;;;21.53;nan;98958.72;5131039;27;20051;-60
2022/03/13 04:38:37;;;;;;;2.80;1.80;;;;;;;21.52;nan;98960.69;5130106;28;20081;-60
2022/03/13 04:41:03;;;;;;;2.65;1.63;;;;;;;21.52;nan;98957.13;5131166;28;20071;-60
2022/03/13 04:43:28;;;;;;;2.63;1.65;;;;;;;21.52;nan;98960.69;5131055;27;20455;-60
2022/03/13 04:45:53;;;;;;;2.50;1.70;;;;;;;21.53;nan;98967.84;5130901;27;20053;-60
2022/03/13 04:48:19;;;;;;;2.67;1.60;;;;;;;21.50;nan;98956.69;5131368;28;20039;-60
2022/03/13 04:50:46;;;;;;;2.63;1.80;;;;;;;21.51;nan;98966.66;5129243;27;20042;-60
2022/03/13 04:53:11;;;;;;;2.75;1.75;;;;;;;21.52;nan;98962.69;5131138;28;20039;-60
2022/03/13 04:55:37;;;;;;;2.63;1.50;;;;;;;21.52;nan;98957.13;5130780;28;20054;-60
2022/03/13 04:58:03;;;;;;;2.92;1.73;;;;;;;21.52;nan;98965.47;5130862;28;20043;-60
2022/03/13 05:00:28;;;;;;;2.60;1.73;;;;;;;21.51;nan;98961.88;5131041;27;20046;-60
2022/03/13 05:02:55;;;;;;;2.00;1.42;;;;;;;21.53;nan;98956.72;5130849;28;20406;-60
2022/03/13 05:05:22;;;;;;;2.63;1.70;;;;;;;21.52;nan;98959.91;5130699;28;20043;-60
2022/03/13 05:07:49;;;;;;;2.33;1.50;;;;;;;21.53;nan;98961.50;5130781;27;20096;-60
2022/03/13 05:10:15;;;;;;;2.38;1.67;;;;;;;21.52;nan;98960.69;5130572;28;20047;-60
2022/03/13 05:12:42;;;;;;;2.80;1.80;;;;;;;21.54;nan;98965.88;5130452;28;20047;-60
2022/03/13 05:15:08;;;;;;;2.53;1.80;;;;;;;21.52;nan;98966.25;5130508;28;20054;-60
2022/03/13 05:17:34;;;;;;;2.20;1.45;;;;;;;21.54;nan;98965.88;5130636;28;20043;-60
2022/03/13 05:19:59;;;;;;;2.38;1.58;;;;;;;21.54;nan;98965.88;5130301;28;20044;-60
2022/03/13 05:22:25;;;;;;;2.70;1.73;;;;;;;21.54;nan;98963.09;5130640;28;20550;-60
2022/03/13 05:24:50;;;;;;;3.30;1.90;;;;;;;21.54;nan;98963.09;5130448;28;20039;-60
2022/03/13 05:27:15;;;;;;;2.40;1.60;;;;;;;21.54;nan;98954.72;5130418;28;20035;-60
2022/03/13 05:29:41;;;;;;;2.40;1.52;;;;;;;21.53;nan;98944.78;5130309;28;20043;-60
2022/03/13 05:32:07;;;;;;;2.35;1.67;;;;;;;21.52;nan;98938.44;5130455;28;20047;-60
2022/03/13 05:34:32;;;;;;;2.75;1.75;;;;;;;21.52;nan;98949.56;5130347;28;20108;-60
2022/03/13 05:36:58;;;;;;;2.17;1.42;;;;;;;21.52;nan;98949.56;5130271;28;20043;-60
2022/03/13 05:39:23;;;;;;;2.10;1.55;;;;;;;21.52;nan;98948.78;5130429;28;20070;-60
2022/03/13 05:41:48;;;;;;;2.63;1.70;;;;;;;21.52;nan;98944.00;5130223;28;20213;-60
2022/03/13 05:44:15;;;;;;;2.15;1.40;;;;;;;21.52;nan;98938.44;5130242;28;20036;-60
2022/03/13 05:46:41;;;;;;;3.05;1.75;;;;;;;21.50;nan;98931.66;5133331;27;20074;-60
2022/03/13 05:49:08;;;;;;;2.22;1.55;;;;;;;21.51;nan;98939.63;5133872;28;20043;-60
2022/03/13 05:51:36;;;;;;;2.35;1.58;;;;;;;21.51;nan;98928.50;5133694;27;20085;-60
2022/03/13 05:54:04;;;;;;;2.22;1.50;;;;;;;21.51;nan;98927.69;5133651;28;20657;-60
2022/03/13 05:56:30;;;;;;;2.00;1.48;;;;;;;21.52;nan;98943.19;5133525;28;20039;-60
2022/03/13 05:58:56;;;;;;;2.33;1.45;;;;;;;21.54;nan;98938.03;5133710;28;20464;-60
2022/03/13 06:01:21;;;;;;;2.08;1.42;;;;;;;21.53;nan;98936.44;5133504;28;20046;-60
2022/03/13 06:03:46;;;;;;;2.25;1.40;;;;;;;21.53;nan;98939.22;5133432;28;20464;-60
2022/03/13 06:06:13;;;;;;;2.33;1.42;;;;;;;21.53;nan;98945.59;5133512;28;20039;-60
2022/03/13 06:08:38;;;;;;;2.30;1.48;;;;;;;21.54;nan;98938.03;5133206;28;20070;-60
2022/03/13 06:11:04;;;;;;;2.42;1.60;;;;;;;21.51;nan;98939.63;5133202;28;20097;-59
2022/03/13 06:13:29;;;;;;;2.30;1.48;;;;;;;21.53;nan;98942.81;5133482;28;20043;-60
2022/03/13 06:15:57;;;;;;;2.70;1.60;;;;;;;21.48;nan;98928.47;5133309;28;20035;-60
2022/03/13 06:18:23;;;;;;;2.58;1.40;;;;;;;21.55;nan;98936.84;5133442;28;20077;-60
2022/03/13 06:20:49;;;;;;;2.35;1.60;;;;;;;21.56;nan;98946.78;5133344;28;20075;-60
2022/03/13 06:23:16;;;;;;;2.75;1.65;;;;;;;21.56;nan;98947.56;5133388;28;20228;-59
2022/03/13 06:25:43;;;;;;;2.70;1.70;;;;;;;21.55;nan;98934.84;5133442;28;20053;-60
2022/03/13 06:28:10;;;;;;;2.38;1.63;;;;;;;21.56;nan;98938.44;5133109;28;20054;-60
2022/03/13 06:30:35;;;;;;;2.30;1.52;;;;;;;21.57;nan;98943.59;5114640;28;20039;-60
2022/03/13 06:33:01;;;;;;;2.17;1.52;;;;;;;21.57;nan;98943.59;5133217;28;20134;-60
2022/03/13 06:35:26;;;;;;;2.50;1.70;;;;;;;21.56;nan;98944.00;5132971;28;20077;-60
2022/03/13 06:37:54;;;;;;;2.17;1.48;;;;;;;21.55;nan;98939.63;5133118;28;20095;-60
2022/03/13 06:40:22;;;;;;;2.35;1.58;;;;;;;21.56;nan;98930.88;5114394;28;20530;-60
2022/03/13 06:42:51;;;;;;;2.17;1.52;;;;;;;21.56;nan;98949.56;5133189;28;20043;-60
2022/03/13 06:45:16;;;;;;;2.17;1.42;;;;;;;21.58;nan;98947.22;5133127;28;20046;-60
2022/03/13 06:47:46;;;;;;;2.03;1.40;;;;;;;21.57;nan;98940.03;5132956;28;20048;-60
2022/03/13 06:50:17;;;;;;;2.40;1.65;;;;;;;21.57;nan;98946.38;5132801;27;20058;-60
2022/03/13 06:52:47;;;;;;;2.40;1.58;;;;;;;21.55;nan;98936.84;5132822;28;20460;-60
2022/03/13 06:55:13;;;;;;;2.40;1.77;;;;;;;21.57;nan;98928.88;5132786;27;20050;-60
2022/03/13 06:57:40;;;;;;;2.58;1.60;;;;;;;21.55;nan;98932.06;5131970;27;20047;-60
2022/03/13 07:00:07;;;;;;;2.60;1.70;;;;;;;21.55;nan;98945.19;5132595;28;20050;-60
2022/03/13 07:02:33;;;;;;;2.65;1.70;;;;;;;21.57;nan;98931.69;5132754;28;20040;-60
2022/03/13 07:04:58;;;;;;;2.30;1.65;;;;;;;21.56;nan;98944.00;5113994;28;20047;-60
2022/03/13 07:07:23;;;;;;;2.92;1.70;;;;;;;21.56;nan;98953.16;5132356;28;20070;-60
2022/03/13 07:09:49;;;;;;;2.22;1.50;;;;;;;21.55;nan;98951.56;5132299;28;20074;-60
2022/03/13 07:12:19;;;;;;;2.40;1.60;;;;;;;21.55;nan;98947.97;5132427;27;20039;-60
2022/03/13 07:14:48;;;;;;;2.70;1.67;;;;;;;21.55;nan;98956.31;5132250;28;20059;-60
2022/03/13 07:17:15;;;;;;;2.15;1.38;;;;;;;21.54;nan;98943.59;5132150;28;20586;-60
2022/03/13 07:19:43;;;;;;;2.58;1.67;;;;;;;21.54;nan;98941.63;5132326;28;20071;-60
2022/03/13 07:22:10;;;;;;;2.33;1.60;;;;;;;21.52;nan;98959.91;5132305;28;20035;-60
2022/03/13 07:24:36;;;;;;;3.05;1.73;;;;;;;21.52;nan;98957.13;5132311;28;20126;-60
2022/03/13 07:27:02;;;;;;;2.45;1.48;;;;;;;21.51;nan;98958.31;5132214;28;20165;-60
2022/03/13 07:29:27;;;;;;;2.50;1.75;;;;;;;21.52;nan;98957.13;5132131;28;20122;-60
2022/03/13 07:31:56;;;;;;;2.72;1.80;;;;;;;21.52;nan;98965.47;5132158;28;20039;-60
2022/03/13 07:34:22;;;;;;;2.60;1.88;;;;;;;21.51;nan;98969.44;5130265;28;20070;-60
2022/03/13 07:36:47;;;;;;;2.40;1.50;;;;;;;21.50;nan;98967.81;5132142;28;20078;-60
2022/03/13 07:39:14;;;;;;;2.53;1.48;;;;;;;21.49;nan;98974.56;5132090;28;20490;-60
2022/03/13 07:41:39;;;;;;;2.72;1.52;;;;;;;21.51;nan;98972.22;5131979;27;20105;-59
2022/03/13 07:44:05;;;;;;;2.45;1.48;;;;;;;21.49;nan;98966.22;5131939;28;20486;-60
2022/03/13 07:46:30;;;;;;;2.38;1.60;;;;;;;21.50;nan;98973.38;5131778;28;20054;-60
2022/03/13 07:48:56;;;;;;;2.83;1.90;;;;;;;21.50;nan;98970.59;5131910;27;20040;-60
2022/03/13 07:51:21;;;;;;;2.50;1.70;;;;;;;21.48;nan;98964.63;5131665;28;20454;-60
2022/03/13 07:53:46;;;;;;;2.60;1.60;;;;;;;21.48;nan;98959.06;5131893;28;20043;-60
2022/03/13 07:56:12;;;;;;;2.45;1.67;;;;;;;21.46;nan;98973.38;5131739;28;20066;-60
2022/03/13 07:58:37;;;;;;;2.67;1.70;;;;;;;21.46;nan;98967.81;5131779;27;20039;-60
2022/03/13 08:01:03;;;;;;;2.30;1.45;;;;;;;21.46;nan;98972.59;5131750;28;20051;-60
2022/03/13 08:03:34;;;;;;;2.40;1.52;;;;;;;21.45;nan;98982.13;5131743;28;20047;-60
2022/03/13 08:06:00;;;;;;;2.25;1.55;;;;;;;21.46;nan;98978.16;5131846;28;20407;-60
2022/03/13 08:08:25;;;;;;;2.58;1.70;;;;;;;21.45;nan;98982.91;5131737;27;20039;-60
2022/03/13 08:10:51;;;;;;;2.45;1.40;;;;;;;21.43;nan;98977.75;5131625;28;20035;-60
2022/03/13 08:13:17;;;;;;;2.45;1.60;;;;;;;21.44;nan;98975.75;5131568;28;20050;-60
2022/03/13 08:15:42;;;;;;;2.50;1.67;;;;;;;21.43;nan;98979.72;5131408;28;20031;-60
2022/03/13 08:18:12;;;;;;;2.40;1.60;;;;;;;21.45;nan;98982.91;5131390;28;20533;-60
2022/03/13 08:20:38;;;;;;;2.22;1.40;;;;;;;21.42;nan;98973.34;5131421;28;20167;-60
2022/03/13 08:23:04;;;;;;;2.90;1.60;;;;;;;21.43;nan;98983.31;5131333;28;20499;-60
2022/03/13 08:25:29;;;;;;;2.30;1.60;;;;;;;21.40;nan;98975.72;5131325;28;20043;-60
2022/03/13 08:27:55;;;;;;;2.63;1.80;;;;;;;21.43;nan;98983.31;5131263;28;20047;-60
2022/03/13 08:30:20;;;;;;;2.20;1.70;;;;;;;21.42;nan;98984.47;5131365;28;20392;-59
2022/03/13 08:32:46;;;;;;;2.00;1.50;;;;;;;21.42;nan;98976.13;5131365;28;20418;-59
2022/03/13 08:35:12;;;;;;;2.05;1.40;;;;;;;21.42;nan;98983.69;5130985;28;20099;-60
2022/03/13 08:37:38;;;;;;;2.88;1.75;;;;;;;21.41;nan;98984.88;5131087;28;20489;-60
2022/03/13 08:40:05;;;;;;;2.65;1.75;;;;;;;21.41;nan;98982.09;5131177;28;20097;-60
2022/03/13 08:42:32;;;;;;;2.88;1.60;;;;;;;21.41;nan;98982.88;5131038;27;20050;-60
2022/03/13 08:44:57;;;;;;;2.47;1.50;;;;;;;21.39;nan;98974.13;5130868;28;20054;-60
2022/03/13 08:47:23;;;;;;;2.47;1.73;;;;;;;21.41;nan;98977.31;5131036;28;20035;-60
2022/03/13 08:49:50;;;;;;;2.13;1.45;;;;;;;21.39;nan;98974.13;5130942;28;20045;-60
2022/03/13 08:52:16;;;;;;;2.10;1.50;;;;;;;21.39;nan;98968.56;5128884;28;20054;-60
2022/03/13 08:54:41;;;;;;;2.80;1.60;;;;;;;21.40;nan;98967.38;5130850;28;20055;-60
2022/03/13 08:57:07;;;;;;;2.30;1.70;;;;;;;21.39;nan;98973.34;5130827;28;20046;-60
2022/03/13 08:59:35;;;;;;;2.42;1.70;;;;;;;21.41;nan;98966.19;5130719;28;20392;-60
2022/03/13 09:02:04;;;;;;;2.10;1.42;;;;;;;21.40;nan;98966.59;5130571;28;20047;-60
2022/03/13 09:04:30;;;;;;;2.55;1.67;;;;;;;21.39;nan;98965.78;5130794;28;20050;-60
2022/03/13 09:06:56;;;;;;;2.40;1.70;;;;;;;21.42;nan;98976.13;5130592;28;20043;-60
2022/03/13 09:09:22;;;;;;;2.90;1.80;;;;;;;21.41;nan;98960.63;5130820;27;20100;-60
2022/03/13 09:11:48;;;;;;;2.17;1.50;;;;;;;21.41;nan;98966.19;5128673;28;20084;-60
2022/03/13 09:14:14;;;;;;;2.60;1.83;;;;;;;21.37;nan;98964.59;5130645;28;20055;-60
2022/03/13 09:16:42;;;;;;;2.20;1.50;;;;;;;21.41;nan;98973.75;5130538;28;20475;-60
2022/03/13 09:19:08;;;;;;;2.13;1.55;;;;;;;21.42;nan;98958.63;5130633;27;20121;-60
2022/03/13 09:21:38;;;;;;;2.42;1.60;;;;;;;21.41;nan;98954.28;5136530;27;20126;-60
2022/03/13 09:24:06;;;;;;;2.92;1.70;;;;;;;21.40;nan;98953.47;5137188;27;20062;-60
2022/03/13 09:26:34;;;;;;;2.45;1.58;;;;;;;21.41;nan;98968.19;5137304;27;20514;-60
2022/03/13 09:29:00;;;;;;;2.25;1.50;;;;;;;21.42;nan;98967.00;5137216;27;20415;-60
2022/03/13 09:31:26;;;;;;;2.22;1.50;;;;;;;21.41;nan;98959.84;5118965;27;20043;-60
2022/03/13 09:33:51;;;;;;;2.85;1.73;;;;;;;21.36;nan;98944.31;5137258;27;20393;-60
2022/03/13 09:36:16;;;;;;;2.53;1.70;;;;;;;21.41;nan;98955.06;5118516;27;20062;-60
2022/03/13 09:38:42;;;;;;;2.65;1.80;;;;;;;21.39;nan;98956.66;5134961;27;20085;-60
2022/03/13 09:41:07;;;;;;;2.40;1.80;;;;;;;21.40;nan;98953.47;5137095;27;20043;-60
2022/03/13 09:43:33;;;;;;;2.65;1.80;;;;;;;21.40;nan;98936.78;5137073;27;20546;-60
2022/03/13 09:45:58;;;;;;;2.33;1.63;;;;;;;21.41;nan;98941.16;5137227;27;20044;-60
2022/03/13 09:48:23;;;;;;;2.38;1.60;;;;;;;21.40;nan;98930.41;5137077;27;20047;-60
2022/03/13 09:50:49;;;;;;;2.78;1.90;;;;;;;21.39;nan;98946.31;5137009;27;20047;-59
2022/03/13 09:53:14;;;;;;;2.30;1.60;;;;;;;21.39;nan;98949.09;5137018;27;20039;-60
2022/03/13 09:55:40;;;;;;;2.42;1.58;;;;;;;21.38;nan;98936.38;5136686;27;20039;-60
2022/03/13 09:58:08;;;;;;;2.28;1.48;;;;;;;21.38;nan;98916.13;5136725;27;20046;-60
2022/03/13 10:00:36;;;;;;;2.67;1.80;;;;;;;21.38;nan;98928.03;5136811;27;20052;-60
2022/03/13 10:03:05;;;;;;;2.13;1.50;;;;;;;21.39;nan;98937.19;5136725;27;20070;-60
2022/03/13 10:05:43;;;;;;;2.28;1.45;;;;;;;21.37;nan;98922.88;5136966;27;20035;-59
2022/03/13 10:08:09;;;;;;;2.45;1.60;;;;;;;21.38;nan;98916.13;5136680;27;20043;-61
2022/03/13 10:10:45;;;;;;;2.35;1.55;;;;;;;21.37;nan;98920.88;5109057;27;20419;-61
2022/03/13 10:13:13;;;;;;;2.40;1.67;;;;;;;21.37;nan;98915.31;5136922;27;20467;-61
2022/03/13 10:15:50;;;;;;;2.53;1.52;;;;;;;21.31;nan;98916.88;5136568;27;20180;-60
2022/03/13 10:18:20;;;;;;;2.15;1.50;;;;;;;21.34;nan;98910.53;5136684;27;20149;-60
2022/03/13 10:20:47;;;;;;;1.98;1.42;;;;;;;21.32;nan;98904.56;5136889;27;20099;-60
2022/03/13 10:23:19;;;;;;;2.70;1.60;;;;;;;21.35;nan;98900.97;5136623;27;20055;-60
2022/03/13 10:25:46;;;;;;;2.70;1.70;;;;;;;21.36;nan;98897.03;5136722;27;20154;-60
2022/03/13 10:28:22;;;;;;;2.97;2.00;;;;;;;21.37;nan;98903.41;5136393;27;20277;-60
2022/03/13 10:30:49;;;;;;;2.47;1.50;;;;;;;21.36;nan;98887.88;5136367;27;20046;-60
2022/03/13 10:33:14;;;;;;;2.72;1.50;;;;;;;21.37;nan;98889.47;5132027;27;20043;-60
2022/03/13 10:35:40;;;;;;;2.33;1.60;;;;;;;21.35;nan;98895.41;5133119;28;20055;-60
2022/03/13 10:38:20;;;;;;;2.45;1.55;;;;;;;21.34;nan;98896.59;5132999;28;20046;-60
2022/03/13 10:40:50;;;;;;;2.15;1.55;;;;;;;21.35;nan;98894.63;5132958;28;20511;-60
2022/03/13 10:43:20;;;;;;;3.28;1.80;;;;;;;21.36;nan;98890.66;5133053;28;20130;-60
2022/03/13 10:45:53;;;;;;;2.42;1.70;;;;;;;21.36;nan;98882.31;5130652;28;20126;-60
2022/03/13 10:48:27;;;;;;;2.40;1.70;;;;;;;21.36;nan;98868.38;5132915;28;20070;-60
2022/03/13 10:50:54;;;;;;;2.50;1.70;;;;;;;21.34;nan;98871.56;5132572;28;20497;-60
2022/03/13 10:53:21;;;;;;;2.35;1.60;;;;;;;21.33;nan;98867.19;5133027;28;20129;-60
2022/03/13 10:56:09;;;;;;;2.25;1.70;;;;;;;21.33;nan;98867.19;5132552;28;20139;-60
2022/03/13 10:58:40;;;;;;;2.45;1.60;;;;;;;21.32;nan;98871.19;5131147;28;20047;-59
2022/03/13 11:01:11;;;;;;;2.65;1.55;;;;;;;21.32;nan;98864.81;5133086;28;20092;-60
2022/03/13 11:03:47;;;;;;;2.05;1.33;;;;;;;21.32;nan;98864.81;5132929;28;20078;-60
2022/03/13 11:06:12;;;;;;;2.17;1.30;;;;;;;21.30;nan;98861.63;5132641;28;20043;-60
2022/03/13 11:08:38;;;;;;;1.63;1.05;;;;;;;21.30;nan;98854.09;5132509;28;20041;-60
2022/03/13 11:11:04;;;;;;;1.77;1.20;;;;;;;21.31;nan;98858.47;5132436;28;20065;-60
2022/03/13 11:13:32;;;;;;;1.90;1.10;;;;;;;21.30;nan;98870.78;5131948;28;20043;-60
2022/03/13 11:15:58;;;;;;;1.70;1.10;;;;;;;21.31;nan;98883.50;5132012;28;20075;-60
2022/03/13 11:18:29;;;;;;;1.92;1.17;;;;;;;21.29;nan;98863.63;5132324;28;20071;-60
2022/03/13 11:20:55;;;;;;;1.80;1.08;;;;;;;21.30;nan;98867.19;5132474;28;20043;-60
2022/03/13 11:23:22;;;;;;;1.70;1.10;;;;;;;21.30;nan;98864.41;5132360;28;20054;-60
2022/03/13 11:25:55;;;;;;;1.88;1.27;;;;;;;21.30;nan;98853.28;5132399;28;20471;-60
2022/03/13 11:28:28;;;;;;;1.52;0.93;;;;;;;21.30;nan;98858.84;5132344;28;20047;-60
2022/03/13 11:30:54;;;;;;;1.40;1.00;;;;;;;21.26;nan;98847.66;5132335;28;20493;-60
2022/03/13 11:33:44;;;;;;;1.30;0.85;;;;;;;21.24;nan;98847.28;5132293;28;20058;-60
2022/03/13 11:36:34;;;;;;;1.30;0.90;;;;;;;21.24;nan;98844.50;5132124;28;20138;-59
2022/03/13 11:39:05;;;;;;;1.73;1.00;;;;;;;21.27;nan;98845.69;5131988;28;20122;-60
2022/03/13 11:41:34;;;;;;;1.33;0.82;;;;;;;21.27;nan;98838.13;5132055;28;20498;-59
2022/03/13 11:44:04;;;;;;;1.55;0.90;;;;;;;21.26;nan;98839.31;5131879;27;20406;-60
2022/03/13 11:46:43;;;;;;;1.27;0.88;;;;;;;21.25;nan;98848.06;5132019;28;20391;-60
2022/03/13 11:49:33;;;;;;;1.60;0.82;;;;;;;21.29;nan;98848.91;5130704;28;20498;-60
2022/03/13 11:52:13;;;;;;;1.30;0.80;;;;;;;21.29;nan;98846.94;5131935;28;20047;-60